sensor_id;sensor_type;location;lat;lon;timestamp;temperature;humidity
9482;DHT22;4779;48.062;11.672;2023-06-22T00:01:17;22.70;97.20
9482;DHT22;4779;48.062;11.672;2023-06-22T00:03:44;22.60;97.20
9482;DHT22;4779;48.062;11.672;2023-06-22T00:06:10;22.40;97.40
9482;DHT22;4779;48.062;11.672;2023-06-22T00:08:37;22.50;97.60
9482;DHT22;4779;48.062;11.672;2023-06-22T00:11:04;22.50;97.50
9482;DHT22;4779;48.062;11.672;2023-06-22T00:13:32;22.50;97.70
9482;DHT22;4779;48.062;11.672;2023-06-22T00:15:59;22.50;97.50
9482;DHT22;4779;48.062;11.672;2023-06-22T00:18:26;22.50;97.60
9482;DHT22;4779;48.062;11.672;2023-06-22T00:20:56;22.50;97.90
9482;DHT22;4779;48.062;11.672;2023-06-22T00:23:24;22.50;97.80
9482;DHT22;4779;48.062;11.672;2023-06-22T00:25:51;22.50;97.80
9482;DHT22;4779;48.062;11.672;2023-06-22T00:28:18;22.40;97.90
9482;DHT22;4779;48.062;11.672;2023-06-22T00:30:47;22.50;98.00
9482;DHT22;4779;48.062;11.672;2023-06-22T00:33:14;22.50;98.10
9482;DHT22;4779;48.062;11.672;2023-06-22T00:38:09;22.40;98.20
9482;DHT22;4779;48.062;11.672;2023-06-22T00:40:36;22.30;98.20
9482;DHT22;4779;48.062;11.672;2023-06-22T00:43:03;22.20;98.30
9482;DHT22;4779;48.062;11.672;2023-06-22T00:45:31;22.20;98.40
9482;DHT22;4779;48.062;11.672;2023-06-22T00:48:00;22.20;98.40
9482;DHT22;4779;48.062;11.672;2023-06-22T00:50:28;22.10;98.60
9482;DHT22;4779;48.062;11.672;2023-06-22T00:53:00;22.10;98.70
9482;DHT22;4779;48.062;11.672;2023-06-22T00:55:29;22.20;98.80
9482;DHT22;4779;48.062;11.672;2023-06-22T00:57:56;22.20;98.60
9482;DHT22;4779;48.062;11.672;2023-06-22T01:00:24;22.10;98.70
9482;DHT22;4779;48.062;11.672;2023-06-22T01:02:52;22.10;98.70
9482;DHT22;4779;48.062;11.672;2023-06-22T01:05:21;22.10;98.90
9482;DHT22;4779;48.062;11.672;2023-06-22T01:08:03;22.10;99.00
9482;DHT22;4779;48.062;11.672;2023-06-22T01:10:36;22.10;99.10
9482;DHT22;4779;48.062;11.672;2023-06-22T01:13:07;22.00;99.20
9482;DHT22;4779;48.062;11.672;2023-06-22T01:15:42;22.00;99.30
9482;DHT22;4779;48.062;11.672;2023-06-22T01:18:13;22.00;99.60
9482;DHT22;4779;48.062;11.672;2023-06-22T01:20:42;21.90;99.40
9482;DHT22;4779;48.062;11.672;2023-06-22T01:23:15;21.90;99.60
9482;DHT22;4779;48.062;11.672;2023-06-22T01:25:48;21.80;99.90
9482;DHT22;4779;48.062;11.672;2023-06-22T01:28:34;21.80;99.90
9482;DHT22;4779;48.062;11.672;2023-06-22T01:31:02;21.70;99.90
9482;DHT22;4779;48.062;11.672;2023-06-22T01:33:34;21.70;99.90
9482;DHT22;4779;48.062;11.672;2023-06-22T01:36:02;21.70;99.90
9482;DHT22;4779;48.062;11.672;2023-06-22T01:38:29;21.70;99.90
9482;DHT22;4779;48.062;11.672;2023-06-22T01:40:57;21.60;99.90
9482;DHT22;4779;48.062;11.672;2023-06-22T01:43:26;21.60;99.90
9482;DHT22;4779;48.062;11.672;2023-06-22T01:45:56;21.60;99.90
9482;DHT22;4779;48.062;11.672;2023-06-22T01:48:23;21.50;99.90
9482;DHT22;4779;48.062;11.672;2023-06-22T01:50:52;21.50;99.90
9482;DHT22;4779;48.062;11.672;2023-06-22T01:53:20;21.50;99.90
9482;DHT22;4779;48.062;11.672;2023-06-22T01:55:47;21.50;99.90
9482;DHT22;4779;48.062;11.672;2023-06-22T01:58:15;21.40;99.90
9482;DHT22;4779;48.062;11.672;2023-06-22T02:00:49;21.40;99.90
9482;DHT22;4779;48.062;11.672;2023-06-22T02:03:21;21.40;99.90
9482;DHT22;4779;48.062;11.672;2023-06-22T02:05:52;21.40;99.90
9482;DHT22;4779;48.062;11.672;2023-06-22T02:08:25;21.40;99.90
9482;DHT22;4779;48.062;11.672;2023-06-22T02:10:56;21.30;99.90
9482;DHT22;4779;48.062;11.672;2023-06-22T02:13:25;21.30;99.90
9482;DHT22;4779;48.062;11.672;2023-06-22T02:15:52;21.30;99.90
9482;DHT22;4779;48.062;11.672;2023-06-22T02:18:21;21.30;99.90
9482;DHT22;4779;48.062;11.672;2023-06-22T02:20:48;21.20;99.90
9482;DHT22;4779;48.062;11.672;2023-06-22T02:23:14;21.20;99.90
9482;DHT22;4779;48.062;11.672;2023-06-22T02:25:41;21.20;99.90
9482;DHT22;4779;48.062;11.672;2023-06-22T02:28:10;21.20;99.90
9482;DHT22;4779;48.062;11.672;2023-06-22T02:30:36;21.20;99.90
9482;DHT22;4779;48.062;11.672;2023-06-22T02:33:03;21.20;99.90
9482;DHT22;4779;48.062;11.672;2023-06-22T02:35:32;21.10;99.90
9482;DHT22;4779;48.062;11.672;2023-06-22T02:38:02;21.10;99.90
9482;DHT22;4779;48.062;11.672;2023-06-22T02:40:29;21.20;99.90
9482;DHT22;4779;48.062;11.672;2023-06-22T02:42:57;21.10;99.90
9482;DHT22;4779;48.062;11.672;2023-06-22T02:45:27;21.10;99.90
9482;DHT22;4779;48.062;11.672;2023-06-22T02:47:54;21.00;99.90
9482;DHT22;4779;48.062;11.672;2023-06-22T02:50:21;21.10;99.90
9482;DHT22;4779;48.062;11.672;2023-06-22T02:52:49;21.10;99.90
9482;DHT22;4779;48.062;11.672;2023-06-22T02:55:16;21.10;99.90
9482;DHT22;4779;48.062;11.672;2023-06-22T02:57:43;21.10;99.90
9482;DHT22;4779;48.062;11.672;2023-06-22T03:00:13;21.00;99.90
9482;DHT22;4779;48.062;11.672;2023-06-22T03:02:42;21.00;99.90
9482;DHT22;4779;48.062;11.672;2023-06-22T03:05:10;21.00;99.90
9482;DHT22;4779;48.062;11.672;2023-06-22T03:07:40;21.00;99.90
9482;DHT22;4779;48.062;11.672;2023-06-22T03:10:10;21.00;99.90
9482;DHT22;4779;48.062;11.672;2023-06-22T03:12:37;20.90;99.90
9482;DHT22;4779;48.062;11.672;2023-06-22T03:15:06;20.90;99.90
9482;DHT22;4779;48.062;11.672;2023-06-22T03:17:33;20.90;99.90
9482;DHT22;4779;48.062;11.672;2023-06-22T03:20:00;20.80;99.90
9482;DHT22;4779;48.062;11.672;2023-06-22T03:22:34;20.90;99.90
9482;DHT22;4779;48.062;11.672;2023-06-22T03:25:01;20.90;99.90
9482;DHT22;4779;48.062;11.672;2023-06-22T03:27:29;20.90;99.90
9482;DHT22;4779;48.062;11.672;2023-06-22T03:29:57;20.80;99.90
9482;DHT22;4779;48.062;11.672;2023-06-22T03:32:24;20.80;99.90
9482;DHT22;4779;48.062;11.672;2023-06-22T03:34:53;20.80;99.90
9482;DHT22;4779;48.062;11.672;2023-06-22T03:37:24;20.80;99.90
9482;DHT22;4779;48.062;11.672;2023-06-22T03:39:51;20.80;99.90
9482;DHT22;4779;48.062;11.672;2023-06-22T03:42:19;20.70;99.90
9482;DHT22;4779;48.062;11.672;2023-06-22T03:44:47;20.80;99.90
9482;DHT22;4779;48.062;11.672;2023-06-22T03:47:14;20.80;99.90
9482;DHT22;4779;48.062;11.672;2023-06-22T03:49:41;20.80;99.90
9482;DHT22;4779;48.062;11.672;2023-06-22T03:52:08;20.90;99.90
9482;DHT22;4779;48.062;11.672;2023-06-22T03:54:36;20.90;99.90
9482;DHT22;4779;48.062;11.672;2023-06-22T03:57:04;20.90;99.90
9482;DHT22;4779;48.062;11.672;2023-06-22T03:59:31;20.90;99.90
9482;DHT22;4779;48.062;11.672;2023-06-22T04:01:59;20.90;99.90
9482;DHT22;4779;48.062;11.672;2023-06-22T04:04:26;20.90;99.90
9482;DHT22;4779;48.062;11.672;2023-06-22T04:06:53;21.00;99.90
9482;DHT22;4779;48.062;11.672;2023-06-22T04:09:20;21.00;99.90
9482;DHT22;4779;48.062;11.672;2023-06-22T04:11:47;21.00;99.90
9482;DHT22;4779;48.062;11.672;2023-06-22T04:14:14;21.10;99.90
9482;DHT22;4779;48.062;11.672;2023-06-22T04:16:41;21.20;99.90
9482;DHT22;4779;48.062;11.672;2023-06-22T04:19:09;21.20;99.90
9482;DHT22;4779;48.062;11.672;2023-06-22T04:21:41;21.30;99.90
9482;DHT22;4779;48.062;11.672;2023-06-22T04:24:08;21.40;99.90
9482;DHT22;4779;48.062;11.672;2023-06-22T04:26:35;21.40;99.90
9482;DHT22;4779;48.062;11.672;2023-06-22T04:29:03;21.50;99.90
9482;DHT22;4779;48.062;11.672;2023-06-22T04:31:31;21.60;99.90
9482;DHT22;4779;48.062;11.672;2023-06-22T04:34:02;21.60;99.90
9482;DHT22;4779;48.062;11.672;2023-06-22T04:36:34;21.60;99.90
9482;DHT22;4779;48.062;11.672;2023-06-22T04:39:06;21.70;99.90
9482;DHT22;4779;48.062;11.672;2023-06-22T04:41:35;21.80;99.90
9482;DHT22;4779;48.062;11.672;2023-06-22T04:44:09;21.80;99.90
9482;DHT22;4779;48.062;11.672;2023-06-22T04:46:36;21.90;99.90
9482;DHT22;4779;48.062;11.672;2023-06-22T04:49:05;22.00;99.90
9482;DHT22;4779;48.062;11.672;2023-06-22T04:51:39;22.10;99.90
9482;DHT22;4779;48.062;11.672;2023-06-22T04:54:06;22.20;99.90
9482;DHT22;4779;48.062;11.672;2023-06-22T04:56:33;22.20;99.90
9482;DHT22;4779;48.062;11.672;2023-06-22T04:59:00;22.20;99.90
9482;DHT22;4779;48.062;11.672;2023-06-22T05:01:28;22.20;99.90
9482;DHT22;4779;48.062;11.672;2023-06-22T05:04:00;22.20;99.90
9482;DHT22;4779;48.062;11.672;2023-06-22T05:06:28;22.20;99.90
9482;DHT22;4779;48.062;11.672;2023-06-22T05:08:57;22.30;99.90
9482;DHT22;4779;48.062;11.672;2023-06-22T05:11:25;22.40;99.90
9482;DHT22;4779;48.062;11.672;2023-06-22T05:13:52;22.40;99.90
9482;DHT22;4779;48.062;11.672;2023-06-22T05:16:20;22.50;99.90
9482;DHT22;4779;48.062;11.672;2023-06-22T05:18:51;22.50;99.90
9482;DHT22;4779;48.062;11.672;2023-06-22T05:21:21;22.50;99.90
9482;DHT22;4779;48.062;11.672;2023-06-22T05:23:48;22.60;99.90
9482;DHT22;4779;48.062;11.672;2023-06-22T05:26:16;22.50;99.90
9482;DHT22;4779;48.062;11.672;2023-06-22T05:28:43;22.60;99.90
9482;DHT22;4779;48.062;11.672;2023-06-22T05:31:12;22.70;99.90
9482;DHT22;4779;48.062;11.672;2023-06-22T05:33:39;22.80;99.90
9482;DHT22;4779;48.062;11.672;2023-06-22T05:36:06;22.90;99.90
9482;DHT22;4779;48.062;11.672;2023-06-22T05:38:33;23.00;99.90
9482;DHT22;4779;48.062;11.672;2023-06-22T05:41:00;23.00;99.90
9482;DHT22;4779;48.062;11.672;2023-06-22T05:43:28;23.00;99.90
9482;DHT22;4779;48.062;11.672;2023-06-22T05:45:55;23.00;99.90
9482;DHT22;4779;48.062;11.672;2023-06-22T05:48:22;23.00;99.90
9482;DHT22;4779;48.062;11.672;2023-06-22T05:50:49;23.10;99.90
9482;DHT22;4779;48.062;11.672;2023-06-22T05:53:16;23.20;99.90
9482;DHT22;4779;48.062;11.672;2023-06-22T05:55:43;23.20;99.90
9482;DHT22;4779;48.062;11.672;2023-06-22T05:58:10;23.30;99.90
9482;DHT22;4779;48.062;11.672;2023-06-22T06:00:40;23.40;99.90
9482;DHT22;4779;48.062;11.672;2023-06-22T06:03:07;23.50;99.90
9482;DHT22;4779;48.062;11.672;2023-06-22T06:05:35;23.70;99.90
9482;DHT22;4779;48.062;11.672;2023-06-22T06:08:04;23.70;99.90
9482;DHT22;4779;48.062;11.672;2023-06-22T06:10:32;23.70;99.90
9482;DHT22;4779;48.062;11.672;2023-06-22T06:12:59;23.80;99.90
9482;DHT22;4779;48.062;11.672;2023-06-22T06:15:28;23.90;99.90
9482;DHT22;4779;48.062;11.672;2023-06-22T06:17:56;24.00;99.90
9482;DHT22;4779;48.062;11.672;2023-06-22T06:20:24;24.20;99.90
9482;DHT22;4779;48.062;11.672;2023-06-22T06:22:51;24.30;99.90
9482;DHT22;4779;48.062;11.672;2023-06-22T06:25:21;24.40;99.90
9482;DHT22;4779;48.062;11.672;2023-06-22T06:27:50;24.40;99.90
9482;DHT22;4779;48.062;11.672;2023-06-22T06:30:18;24.50;99.90
9482;DHT22;4779;48.062;11.672;2023-06-22T06:32:46;24.60;99.90
9482;DHT22;4779;48.062;11.672;2023-06-22T06:35:15;24.70;99.90
9482;DHT22;4779;48.062;11.672;2023-06-22T06:37:43;24.80;99.90
9482;DHT22;4779;48.062;11.672;2023-06-22T06:40:12;24.90;99.90
9482;DHT22;4779;48.062;11.672;2023-06-22T06:42:40;25.10;99.90
9482;DHT22;4779;48.062;11.672;2023-06-22T06:45:10;25.20;99.60
9482;DHT22;4779;48.062;11.672;2023-06-22T06:47:38;25.40;99.40
9482;DHT22;4779;48.062;11.672;2023-06-22T06:50:06;25.50;99.60
9482;DHT22;4779;48.062;11.672;2023-06-22T06:52:35;25.50;99.00
9482;DHT22;4779;48.062;11.672;2023-06-22T06:55:02;25.60;98.70
9482;DHT22;4779;48.062;11.672;2023-06-22T06:57:30;25.70;98.90
9482;DHT22;4779;48.062;11.672;2023-06-22T06:59:57;25.80;98.60
9482;DHT22;4779;48.062;11.672;2023-06-22T07:02:26;25.90;98.00
9482;DHT22;4779;48.062;11.672;2023-06-22T07:04:53;26.10;97.50
9482;DHT22;4779;48.062;11.672;2023-06-22T07:07:22;26.20;98.10
9482;DHT22;4779;48.062;11.672;2023-06-22T07:09:50;26.30;98.30
9482;DHT22;4779;48.062;11.672;2023-06-22T07:12:17;26.40;97.90
9482;DHT22;4779;48.062;11.672;2023-06-22T07:14:52;26.40;98.30
9482;DHT22;4779;48.062;11.672;2023-06-22T07:17:19;26.50;97.80
9482;DHT22;4779;48.062;11.672;2023-06-22T07:19:46;26.50;97.40
9482;DHT22;4779;48.062;11.672;2023-06-22T07:22:13;26.50;97.40
9482;DHT22;4779;48.062;11.672;2023-06-22T07:24:40;26.60;97.70
9482;DHT22;4779;48.062;11.672;2023-06-22T07:27:06;26.70;96.40
9482;DHT22;4779;48.062;11.672;2023-06-22T07:29:36;26.80;97.20
9482;DHT22;4779;48.062;11.672;2023-06-22T07:32:07;27.00;97.10
9482;DHT22;4779;48.062;11.672;2023-06-22T07:34:34;27.20;96.90
9482;DHT22;4779;48.062;11.672;2023-06-22T07:37:01;27.30;96.50
9482;DHT22;4779;48.062;11.672;2023-06-22T07:39:30;27.30;96.50
9482;DHT22;4779;48.062;11.672;2023-06-22T07:41:56;27.40;95.70
9482;DHT22;4779;48.062;11.672;2023-06-22T07:44:24;27.50;95.80
9482;DHT22;4779;48.062;11.672;2023-06-22T07:46:50;27.60;94.90
9482;DHT22;4779;48.062;11.672;2023-06-22T07:49:19;27.70;95.50
9482;DHT22;4779;48.062;11.672;2023-06-22T07:51:46;27.80;94.70
9482;DHT22;4779;48.062;11.672;2023-06-22T07:54:12;27.90;94.70
9482;DHT22;4779;48.062;11.672;2023-06-22T07:56:41;27.90;94.30
9482;DHT22;4779;48.062;11.672;2023-06-22T07:59:08;28.10;93.20
9482;DHT22;4779;48.062;11.672;2023-06-22T08:01:35;28.30;93.20
9482;DHT22;4779;48.062;11.672;2023-06-22T08:04:02;28.40;93.90
9482;DHT22;4779;48.062;11.672;2023-06-22T08:06:32;28.50;93.10
9482;DHT22;4779;48.062;11.672;2023-06-22T08:08:59;28.60;92.80
9482;DHT22;4779;48.062;11.672;2023-06-22T08:11:26;28.80;93.20
9482;DHT22;4779;48.062;11.672;2023-06-22T08:13:53;29.00;93.40
9482;DHT22;4779;48.062;11.672;2023-06-22T08:16:21;29.00;92.10
9482;DHT22;4779;48.062;11.672;2023-06-22T08:18:48;29.10;92.30
9482;DHT22;4779;48.062;11.672;2023-06-22T08:21:15;29.30;91.60
9482;DHT22;4779;48.062;11.672;2023-06-22T08:23:43;29.50;91.50
9482;DHT22;4779;48.062;11.672;2023-06-22T08:26:10;29.70;91.70
9482;DHT22;4779;48.062;11.672;2023-06-22T08:28:37;29.90;91.80
9482;DHT22;4779;48.062;11.672;2023-06-22T08:31:04;30.00;90.30
9482;DHT22;4779;48.062;11.672;2023-06-22T08:33:31;30.20;91.30
9482;DHT22;4779;48.062;11.672;2023-06-22T08:35:58;30.20;90.50
9482;DHT22;4779;48.062;11.672;2023-06-22T08:38:25;30.10;90.40
9482;DHT22;4779;48.062;11.672;2023-06-22T08:40:53;30.10;90.40
9482;DHT22;4779;48.062;11.672;2023-06-22T08:43:20;30.00;89.90
9482;DHT22;4779;48.062;11.672;2023-06-22T08:45:47;29.90;90.10
9482;DHT22;4779;48.062;11.672;2023-06-22T08:48:14;29.80;89.20
9482;DHT22;4779;48.062;11.672;2023-06-22T08:50:41;29.80;90.90
9482;DHT22;4779;48.062;11.672;2023-06-22T08:53:08;29.80;89.60
9482;DHT22;4779;48.062;11.672;2023-06-22T08:55:35;29.90;91.90
9482;DHT22;4779;48.062;11.672;2023-06-22T08:58:03;30.20;90.40
9482;DHT22;4779;48.062;11.672;2023-06-22T09:00:30;30.50;90.50
9482;DHT22;4779;48.062;11.672;2023-06-22T09:03:00;30.50;88.90
9482;DHT22;4779;48.062;11.672;2023-06-22T09:05:27;30.70;90.30
9482;DHT22;4779;48.062;11.672;2023-06-22T09:07:55;30.90;88.40
9482;DHT22;4779;48.062;11.672;2023-06-22T09:10:24;31.20;87.40
9482;DHT22;4779;48.062;11.672;2023-06-22T09:12:51;31.40;86.90
9482;DHT22;4779;48.062;11.672;2023-06-22T09:15:19;31.60;86.10
9482;DHT22;4779;48.062;11.672;2023-06-22T09:17:46;31.70;84.30
9482;DHT22;4779;48.062;11.672;2023-06-22T09:20:13;31.60;84.10
9482;DHT22;4779;48.062;11.672;2023-06-22T09:22:41;31.50;84.70
9482;DHT22;4779;48.062;11.672;2023-06-22T09:25:08;31.60;84.80
9482;DHT22;4779;48.062;11.672;2023-06-22T09:27:35;31.70;85.80
9482;DHT22;4779;48.062;11.672;2023-06-22T09:30:04;32.00;84.60
9482;DHT22;4779;48.062;11.672;2023-06-22T09:32:33;32.40;82.40
9482;DHT22;4779;48.062;11.672;2023-06-22T09:35:03;32.60;80.90
9482;DHT22;4779;48.062;11.672;2023-06-22T09:37:32;32.80;78.00
9482;DHT22;4779;48.062;11.672;2023-06-22T09:39:58;32.80;81.40
9482;DHT22;4779;48.062;11.672;2023-06-22T09:42:25;33.00;79.40
9482;DHT22;4779;48.062;11.672;2023-06-22T09:44:52;33.20;81.00
9482;DHT22;4779;48.062;11.672;2023-06-22T09:47:19;33.40;79.60
9482;DHT22;4779;48.062;11.672;2023-06-22T09:49:47;33.50;79.80
9482;DHT22;4779;48.062;11.672;2023-06-22T09:52:15;33.50;75.90
9482;DHT22;4779;48.062;11.672;2023-06-22T09:54:42;33.30;76.00
9482;DHT22;4779;48.062;11.672;2023-06-22T09:57:09;33.20;79.60
9482;DHT22;4779;48.062;11.672;2023-06-22T09:59:36;33.30;78.50
9482;DHT22;4779;48.062;11.672;2023-06-22T10:02:03;33.50;78.50
9482;DHT22;4779;48.062;11.672;2023-06-22T10:04:30;33.70;77.20
9482;DHT22;4779;48.062;11.672;2023-06-22T10:06:58;34.00;75.40
9482;DHT22;4779;48.062;11.672;2023-06-22T10:09:25;34.20;76.40
9482;DHT22;4779;48.062;11.672;2023-06-22T10:11:52;34.50;77.90
9482;DHT22;4779;48.062;11.672;2023-06-22T10:14:19;34.60;73.10
9482;DHT22;4779;48.062;11.672;2023-06-22T10:16:47;34.70;73.30
9482;DHT22;4779;48.062;11.672;2023-06-22T10:19:14;34.90;74.20
9482;DHT22;4779;48.062;11.672;2023-06-22T10:21:41;35.00;69.00
9482;DHT22;4779;48.062;11.672;2023-06-22T10:24:09;35.00;72.20
9482;DHT22;4779;48.062;11.672;2023-06-22T10:26:36;35.00;69.00
9482;DHT22;4779;48.062;11.672;2023-06-22T10:29:03;35.20;72.00
9482;DHT22;4779;48.062;11.672;2023-06-22T10:31:30;35.30;69.80
9482;DHT22;4779;48.062;11.672;2023-06-22T10:33:57;35.40;68.50
9482;DHT22;4779;48.062;11.672;2023-06-22T10:36:24;35.50;72.10
9482;DHT22;4779;48.062;11.672;2023-06-22T10:38:51;35.70;70.20
9482;DHT22;4779;48.062;11.672;2023-06-22T10:41:20;36.00;91.70
9482;DHT22;4779;48.062;11.672;2023-06-22T10:43:47;37.20;90.70
9482;DHT22;4779;48.062;11.672;2023-06-22T10:46:14;36.10;83.30
9482;DHT22;4779;48.062;11.672;2023-06-22T10:48:41;36.20;79.90
9482;DHT22;4779;48.062;11.672;2023-06-22T10:51:07;36.30;82.40
9482;DHT22;4779;48.062;11.672;2023-06-22T10:53:34;36.20;77.50
9482;DHT22;4779;48.062;11.672;2023-06-22T10:56:01;36.30;78.00
9482;DHT22;4779;48.062;11.672;2023-06-22T10:58:29;36.60;73.30
9482;DHT22;4779;48.062;11.672;2023-06-22T11:00:56;36.80;68.30
9482;DHT22;4779;48.062;11.672;2023-06-22T11:03:24;37.20;76.50
9482;DHT22;4779;48.062;11.672;2023-06-22T11:05:51;37.10;75.90
9482;DHT22;4779;48.062;11.672;2023-06-22T11:08:18;37.40;81.80
9482;DHT22;4779;48.062;11.672;2023-06-22T11:10:45;37.40;77.60
9482;DHT22;4779;48.062;11.672;2023-06-22T11:13:12;37.50;78.60
9482;DHT22;4779;48.062;11.672;2023-06-22T11:15:40;37.20;74.80
9482;DHT22;4779;48.062;11.672;2023-06-22T11:18:07;36.90;78.10
9482;DHT22;4779;48.062;11.672;2023-06-22T11:20:34;36.70;78.90
9482;DHT22;4779;48.062;11.672;2023-06-22T11:23:04;36.30;81.70
9482;DHT22;4779;48.062;11.672;2023-06-22T11:25:32;36.20;80.50
9482;DHT22;4779;48.062;11.672;2023-06-22T11:28:01;36.00;80.80
9482;DHT22;4779;48.062;11.672;2023-06-22T11:30:28;35.90;79.10
9482;DHT22;4779;48.062;11.672;2023-06-22T11:32:56;35.50;80.40
9482;DHT22;4779;48.062;11.672;2023-06-22T11:35:25;35.50;81.80
9482;DHT22;4779;48.062;11.672;2023-06-22T11:37:52;35.80;81.30
9482;DHT22;4779;48.062;11.672;2023-06-22T11:40:19;36.20;79.60
9482;DHT22;4779;48.062;11.672;2023-06-22T11:42:46;36.60;79.20
9482;DHT22;4779;48.062;11.672;2023-06-22T11:45:12;37.00;79.70
9482;DHT22;4779;48.062;11.672;2023-06-22T11:47:39;37.20;74.90
9482;DHT22;4779;48.062;11.672;2023-06-22T11:50:08;37.40;77.30
9482;DHT22;4779;48.062;11.672;2023-06-22T11:52:35;37.70;77.30
9482;DHT22;4779;48.062;11.672;2023-06-22T11:55:03;37.80;78.50
9482;DHT22;4779;48.062;11.672;2023-06-22T11:57:33;37.70;78.50
9482;DHT22;4779;48.062;11.672;2023-06-22T12:00:00;37.80;76.80
9482;DHT22;4779;48.062;11.672;2023-06-22T12:02:31;37.80;78.80
9482;DHT22;4779;48.062;11.672;2023-06-22T12:04:58;37.40;76.20
9482;DHT22;4779;48.062;11.672;2023-06-22T12:07:26;37.50;75.80
9482;DHT22;4779;48.062;11.672;2023-06-22T12:09:53;37.50;76.60
9482;DHT22;4779;48.062;11.672;2023-06-22T12:12:20;37.40;78.30
9482;DHT22;4779;48.062;11.672;2023-06-22T12:14:47;37.20;79.80
9482;DHT22;4779;48.062;11.672;2023-06-22T12:17:14;37.00;78.10
9482;DHT22;4779;48.062;11.672;2023-06-22T12:19:41;36.80;78.70
9482;DHT22;4779;48.062;11.672;2023-06-22T12:22:08;36.70;78.30
9482;DHT22;4779;48.062;11.672;2023-06-22T12:24:36;36.50;77.70
9482;DHT22;4779;48.062;11.672;2023-06-22T12:27:04;36.30;79.60
9482;DHT22;4779;48.062;11.672;2023-06-22T12:29:31;36.10;78.70
9482;DHT22;4779;48.062;11.672;2023-06-22T12:31:57;36.00;79.80
9482;DHT22;4779;48.062;11.672;2023-06-22T12:34:24;36.10;77.30
9482;DHT22;4779;48.062;11.672;2023-06-22T12:36:51;36.60;78.90
9482;DHT22;4779;48.062;11.672;2023-06-22T12:39:20;36.90;76.40
9482;DHT22;4779;48.062;11.672;2023-06-22T12:41:48;37.00;77.00
9482;DHT22;4779;48.062;11.672;2023-06-22T12:44:15;37.10;75.90
9482;DHT22;4779;48.062;11.672;2023-06-22T12:46:44;37.40;76.90
9482;DHT22;4779;48.062;11.672;2023-06-22T12:49:11;37.50;76.30
9482;DHT22;4779;48.062;11.672;2023-06-22T12:51:40;37.60;73.60
9482;DHT22;4779;48.062;11.672;2023-06-22T12:54:08;37.80;74.00
9482;DHT22;4779;48.062;11.672;2023-06-22T12:56:35;37.90;73.30
9482;DHT22;4779;48.062;11.672;2023-06-22T12:59:04;38.00;73.50
9482;DHT22;4779;48.062;11.672;2023-06-22T13:01:32;37.80;74.70
9482;DHT22;4779;48.062;11.672;2023-06-22T13:03:59;37.60;72.70
9482;DHT22;4779;48.062;11.672;2023-06-22T13:06:26;37.60;73.10
9482;DHT22;4779;48.062;11.672;2023-06-22T13:08:53;37.30;74.50
9482;DHT22;4779;48.062;11.672;2023-06-22T13:11:20;37.10;71.70
9482;DHT22;4779;48.062;11.672;2023-06-22T13:13:47;37.30;73.40
9482;DHT22;4779;48.062;11.672;2023-06-22T13:16:15;37.60;74.40
9482;DHT22;4779;48.062;11.672;2023-06-22T13:18:42;37.70;73.30
9482;DHT22;4779;48.062;11.672;2023-06-22T13:21:09;37.80;75.60
9482;DHT22;4779;48.062;11.672;2023-06-22T13:23:36;38.00;73.20
9482;DHT22;4779;48.062;11.672;2023-06-22T13:26:03;38.00;73.20
9482;DHT22;4779;48.062;11.672;2023-06-22T13:28:29;38.00;75.30
9482;DHT22;4779;48.062;11.672;2023-06-22T13:30:57;38.00;75.70
9482;DHT22;4779;48.062;11.672;2023-06-22T13:33:25;37.90;74.50
9482;DHT22;4779;48.062;11.672;2023-06-22T13:35:52;37.70;73.10
9482;DHT22;4779;48.062;11.672;2023-06-22T13:38:19;37.70;75.60
9482;DHT22;4779;48.062;11.672;2023-06-22T13:40:46;37.70;76.30
9482;DHT22;4779;48.062;11.672;2023-06-22T13:43:14;38.00;76.40
9482;DHT22;4779;48.062;11.672;2023-06-22T13:45:41;38.00;74.70
9482;DHT22;4779;48.062;11.672;2023-06-22T13:48:09;38.10;74.90
9482;DHT22;4779;48.062;11.672;2023-06-22T13:50:37;38.10;73.10
9482;DHT22;4779;48.062;11.672;2023-06-22T13:53:04;38.20;73.10
9482;DHT22;4779;48.062;11.672;2023-06-22T13:55:31;38.20;73.30
9482;DHT22;4779;48.062;11.672;2023-06-22T13:57:59;38.00;72.50
9482;DHT22;4779;48.062;11.672;2023-06-22T14:00:27;38.00;73.70
9482;DHT22;4779;48.062;11.672;2023-06-22T14:02:54;37.90;75.90
9482;DHT22;4779;48.062;11.672;2023-06-22T14:05:21;37.70;74.50
9482;DHT22;4779;48.062;11.672;2023-06-22T14:07:49;37.70;75.00
9482;DHT22;4779;48.062;11.672;2023-06-22T14:10:16;37.70;74.20
9482;DHT22;4779;48.062;11.672;2023-06-22T14:12:43;37.60;73.90
9482;DHT22;4779;48.062;11.672;2023-06-22T14:15:10;37.50;73.70
9482;DHT22;4779;48.062;11.672;2023-06-22T14:17:37;37.50;75.20
9482;DHT22;4779;48.062;11.672;2023-06-22T14:20:05;37.60;73.10
9482;DHT22;4779;48.062;11.672;2023-06-22T14:22:34;37.40;73.90
9482;DHT22;4779;48.062;11.672;2023-06-22T14:25:02;37.40;75.00
9482;DHT22;4779;48.062;11.672;2023-06-22T14:27:29;37.30;75.10
9482;DHT22;4779;48.062;11.672;2023-06-22T14:29:56;37.30;75.50
9482;DHT22;4779;48.062;11.672;2023-06-22T14:32:23;37.10;77.50
9482;DHT22;4779;48.062;11.672;2023-06-22T14:34:50;37.00;75.10
9482;DHT22;4779;48.062;11.672;2023-06-22T14:37:17;36.90;74.80
9482;DHT22;4779;48.062;11.672;2023-06-22T14:39:44;36.80;77.90
9482;DHT22;4779;48.062;11.672;2023-06-22T14:42:12;36.60;76.60
9482;DHT22;4779;48.062;11.672;2023-06-22T14:44:39;36.50;73.90
9482;DHT22;4779;48.062;11.672;2023-06-22T14:47:07;36.50;76.80
9482;DHT22;4779;48.062;11.672;2023-06-22T14:49:34;36.40;76.00
9482;DHT22;4779;48.062;11.672;2023-06-22T14:52:02;36.20;78.00
9482;DHT22;4779;48.062;11.672;2023-06-22T14:54:29;36.00;77.30
9482;DHT22;4779;48.062;11.672;2023-06-22T14:56:56;35.90;76.70
9482;DHT22;4779;48.062;11.672;2023-06-22T14:59:24;35.80;77.10
9482;DHT22;4779;48.062;11.672;2023-06-22T15:01:51;35.70;77.50
9482;DHT22;4779;48.062;11.672;2023-06-22T15:04:18;35.50;77.70
9482;DHT22;4779;48.062;11.672;2023-06-22T15:06:45;35.40;78.80
9482;DHT22;4779;48.062;11.672;2023-06-22T15:09:12;35.40;77.20
9482;DHT22;4779;48.062;11.672;2023-06-22T15:11:39;35.30;78.20
9482;DHT22;4779;48.062;11.672;2023-06-22T15:14:06;35.40;77.10
9482;DHT22;4779;48.062;11.672;2023-06-22T15:16:34;35.30;77.60
9482;DHT22;4779;48.062;11.672;2023-06-22T15:19:01;35.10;76.50
9482;DHT22;4779;48.062;11.672;2023-06-22T15:21:28;35.20;76.90
9482;DHT22;4779;48.062;11.672;2023-06-22T15:23:55;35.20;78.90
9482;DHT22;4779;48.062;11.672;2023-06-22T15:26:22;35.10;77.10
9482;DHT22;4779;48.062;11.672;2023-06-22T15:28:49;35.10;78.00
9482;DHT22;4779;48.062;11.672;2023-06-22T15:31:15;35.00;81.10
9482;DHT22;4779;48.062;11.672;2023-06-22T15:33:44;35.00;80.00
9482;DHT22;4779;48.062;11.672;2023-06-22T15:36:11;34.90;81.00
9482;DHT22;4779;48.062;11.672;2023-06-22T15:38:37;34.70;80.80
9482;DHT22;4779;48.062;11.672;2023-06-22T15:41:04;34.70;80.30
9482;DHT22;4779;48.062;11.672;2023-06-22T15:43:31;34.50;80.50
9482;DHT22;4779;48.062;11.672;2023-06-22T15:45:58;34.40;78.60
9482;DHT22;4779;48.062;11.672;2023-06-22T15:48:25;34.40;80.70
9482;DHT22;4779;48.062;11.672;2023-06-22T15:50:53;34.40;78.00